createdAt,value
2019-01-23T07:43:55.445Z,24.63
2019-01-23T07:46:25.154Z,19.03
2019-01-23T07:48:54.970Z,18.83
2019-01-23T07:51:24.629Z,18.77
2019-01-23T07:53:54.354Z,15.63
2019-01-23T07:56:24.211Z,17.67
2019-01-23T07:58:54.181Z,22.30
2019-01-23T08:01:23.977Z,24.90
2019-01-23T08:03:53.392Z,31.17
2019-01-23T08:06:22.903Z,36.27
2019-01-23T08:08:52.539Z,38.07
2019-01-23T08:11:22.202Z,30.40
2019-01-23T08:13:52.017Z,16.43
2019-01-23T08:16:21.554Z,18.03
2019-01-23T08:18:51.255Z,19.20
2019-01-23T08:21:20.655Z,19.97
2019-01-23T08:23:50.288Z,17.67
2019-01-23T08:26:19.710Z,18.47
2019-01-23T08:28:49.113Z,17.67
2019-01-23T08:31:18.610Z,14.33
2019-01-23T08:33:48.494Z,13.50
2019-01-23T08:36:18.002Z,21.60
2019-01-23T08:38:47.652Z,20.20
2019-01-23T08:41:17.498Z,24.77
2019-01-23T08:43:47.539Z,19.60
2019-01-23T08:46:17.218Z,20.77
2019-01-23T08:48:46.923Z,20.53
2019-01-23T08:51:16.565Z,26.50
2019-01-23T08:53:46.351Z,19.50
2019-01-23T08:56:15.746Z,21.40
2019-01-23T09:18:19.323Z,24.57
2019-01-23T09:20:49.201Z,17.97
2019-01-23T09:23:18.964Z,68.77
2019-01-23T09:25:50.010Z,25.57
2019-01-23T09:28:20.076Z,26.30
2019-01-23T09:31:27.171Z,25.13
2019-01-23T09:34:40.331Z,32.40
2019-01-23T09:37:38.502Z,24.77
2019-01-23T09:40:17.456Z,32.90
2019-01-23T09:43:08.389Z,52.17
2019-01-23T09:46:20.287Z,56.57
2019-01-23T09:49:15.358Z,123.07
2019-01-23T09:52:27.311Z,177.80
2019-01-23T09:54:57.049Z,32.03
2019-01-23T09:57:26.877Z,33.90
2019-01-23T09:59:56.481Z,27.80
2019-01-23T10:02:26.323Z,25.90
2019-01-23T10:04:55.985Z,32.30
2019-01-23T10:07:25.690Z,24.53
2019-01-23T10:09:57.653Z,27.70
2019-01-23T10:12:27.370Z,23.37
2019-01-23T10:14:57.083Z,26.83
2019-01-23T10:17:26.935Z,27.53
2019-01-23T10:19:58.977Z,25.33
2019-01-23T10:22:29.240Z,26.30
2019-01-23T10:24:58.677Z,33.10
2019-01-23T10:27:28.062Z,28.70
2019-01-23T10:29:58.179Z,35.30
2019-01-23T10:32:28.059Z,29.93
2019-01-23T10:34:57.616Z,20.47
2019-01-23T10:37:27.203Z,27.03
2019-01-23T10:39:56.952Z,32.03
2019-01-23T10:42:26.716Z,23.53
2019-01-23T10:44:56.402Z,33.20
2019-01-23T10:47:26.226Z,32.90
2019-01-23T10:49:55.628Z,27.50
2019-01-23T10:52:25.055Z,26.40
2019-01-23T10:54:54.587Z,31.60
2019-01-23T10:57:24.209Z,32.17
2019-01-23T10:59:53.602Z,37.97
2019-01-23T11:02:23.193Z,35.10
2019-01-23T11:04:52.720Z,40.93
2019-01-23T11:07:22.417Z,35.37
2019-01-23T11:09:51.984Z,37.73
2019-01-23T11:12:21.623Z,37.33
2019-01-23T11:14:51.432Z,46.77
2019-01-23T11:17:21.238Z,38.77
2019-01-23T11:19:50.644Z,41.00
2019-01-23T11:22:20.180Z,32.27
2019-01-23T11:24:49.846Z,42.43
2019-01-23T11:27:19.264Z,39.17
2019-01-23T11:29:48.754Z,34.10
2019-01-23T11:32:18.484Z,36.47
2019-01-23T11:34:48.176Z,47.97
2019-01-23T11:37:17.860Z,49.00
2019-01-23T11:39:47.761Z,49.60
2019-01-23T11:42:17.646Z,61.10
2019-01-23T11:44:47.035Z,37.50
2019-01-23T11:47:16.616Z,32.83
2019-01-23T11:49:46.103Z,34.50
2019-01-23T11:52:15.848Z,42.23
2019-01-23T11:54:45.446Z,39.30
2019-01-23T11:57:15.254Z,42.07
2019-01-23T11:59:44.760Z,40.03
2019-01-23T12:02:14.821Z,40.40
2019-01-23T12:04:44.374Z,31.50
2019-01-23T12:07:13.785Z,34.43
2019-01-23T12:09:43.428Z,32.70
2019-01-23T12:12:13.329Z,40.37
2019-01-23T12:14:42.811Z,40.67
2019-01-23T12:17:12.227Z,39.50
2019-01-23T12:19:41.735Z,47.23
2019-01-23T12:22:11.332Z,38.67
2019-01-23T12:24:41.031Z,37.13
2019-01-23T12:27:10.636Z,35.87
2019-01-23T12:29:40.466Z,36.13
2019-01-23T12:32:09.928Z,54.80
2019-01-23T12:34:39.551Z,38.43
2019-01-23T12:37:09.126Z,43.47
2019-01-23T12:39:38.993Z,56.67
2019-01-23T12:42:08.579Z,47.93
2019-01-23T12:44:39.118Z,43.87
2019-01-23T12:47:08.934Z,48.57
2019-01-23T12:49:38.625Z,45.10
2019-01-23T12:52:08.227Z,44.00
2019-01-23T12:54:38.062Z,42.80
2019-01-23T12:57:07.531Z,47.60
2019-01-23T12:59:37.136Z,54.60
2019-01-23T13:02:09.785Z,85.70
2019-01-23T13:04:38.592Z,102.07
2019-01-23T13:07:07.895Z,397.57
2019-01-23T13:09:37.809Z,75.30
2019-01-23T13:12:07.715Z,43.13
2019-01-23T13:14:37.436Z,46.67
2019-01-23T13:17:07.384Z,47.63
2019-01-23T13:19:37.103Z,66.37
2019-01-23T13:22:07.151Z,98.97
2019-01-23T13:24:36.816Z,161.23
2019-01-23T13:27:09.448Z,228.93
2019-01-23T13:29:38.990Z,98.90
2019-01-23T13:32:08.717Z,82.87
2019-01-23T13:34:39.552Z,135.70
2019-01-23T13:37:09.795Z,95.07
2019-01-23T13:39:39.923Z,94.07
2019-01-23T13:42:09.813Z,106.03
2019-01-23T13:44:39.304Z,91.20
2019-01-23T13:47:08.796Z,92.63
2019-01-23T13:49:38.539Z,79.17
2019-01-23T13:52:08.330Z,108.33
2019-01-23T13:54:38.018Z,71.10
2019-01-23T13:57:07.805Z,63.70
2019-01-23T13:59:37.563Z,75.27
2019-01-23T14:02:06.943Z,73.47
2019-01-23T14:04:36.846Z,83.53
2019-01-23T14:07:06.421Z,96.17
2019-01-23T14:09:35.825Z,79.67
2019-01-23T14:12:05.640Z,71.90
2019-01-23T14:14:38.965Z,80.17
2019-01-23T14:17:09.682Z,73.83
2019-01-23T14:19:39.291Z,61.53
2019-01-23T14:22:09.790Z,64.80
2019-01-23T14:24:39.298Z,189.80
2019-01-23T14:27:09.168Z,80.80
2019-01-23T14:29:39.062Z,64.57
2019-01-23T14:32:09.191Z,62.57
2019-01-23T14:34:38.892Z,73.40
2019-01-23T14:37:08.453Z,69.50
2019-01-23T14:39:37.853Z,72.00
2019-01-23T14:42:08.331Z,65.33
2019-01-23T14:44:37.724Z,73.07
2019-01-23T14:47:08.523Z,68.20
2019-01-23T14:49:38.368Z,76.27
2019-01-23T14:52:07.960Z,77.77
2019-01-23T14:54:37.385Z,89.50
2019-01-23T14:57:09.183Z,68.93
2019-01-23T14:59:38.922Z,66.97
2019-01-23T15:02:10.378Z,72.13
2019-01-23T15:04:40.333Z,53.13
2019-01-23T15:07:09.743Z,54.70
2019-01-23T15:09:39.469Z,55.37
2019-01-23T15:12:09.249Z,57.30
2019-01-23T15:14:38.656Z,59.77
2019-01-23T15:17:08.437Z,59.40
2019-01-23T15:19:37.905Z,61.10
2019-01-23T15:22:07.347Z,91.40
2019-01-23T15:24:36.934Z,65.90
2019-01-23T15:27:06.819Z,80.90
2019-01-23T15:29:36.395Z,84.97
2019-01-23T15:32:05.953Z,98.03
2019-01-23T15:34:35.879Z,111.07
2019-01-23T15:37:05.480Z,76.60
2019-01-23T15:39:35.122Z,76.20
2019-01-23T15:42:05.050Z,71.03
2019-01-23T15:44:34.542Z,79.70
2019-01-23T15:47:05.627Z,119.07
2019-01-23T15:49:35.041Z,117.13
2019-01-23T15:52:04.711Z,89.17
2019-01-23T15:54:34.216Z,66.80
2019-01-23T15:57:03.823Z,74.30
2019-01-23T15:59:33.328Z,103.27
2019-01-23T16:02:02.826Z,70.13
2019-01-23T16:04:32.563Z,77.83
2019-01-23T16:07:02.256Z,76.27
2019-01-23T16:09:31.748Z,70.27
2019-01-23T16:12:01.565Z,75.70
2019-01-23T16:14:31.260Z,60.70
2019-01-23T16:17:01.133Z,78.60
2019-01-23T16:19:30.830Z,92.47
2019-01-23T16:22:00.700Z,93.10
2019-01-23T16:24:30.693Z,77.00
2019-01-23T16:27:01.641Z,83.43
2019-01-23T16:29:31.197Z,74.97
2019-01-23T16:32:00.980Z,66.37
2019-01-23T16:34:30.558Z,77.17
2019-01-23T16:37:00.081Z,68.93
2019-01-23T16:39:29.719Z,69.00
2019-01-23T16:41:59.309Z,49.43
2019-01-23T16:44:29.076Z,51.37
2019-01-23T16:46:58.656Z,52.70
2019-01-23T16:49:28.320Z,50.97
2019-01-23T16:51:58.031Z,86.93
2019-01-23T16:54:27.831Z,221.90
2019-01-23T16:56:57.296Z,79.03
2019-01-23T16:59:27.151Z,105.93
2019-01-23T17:01:56.632Z,46.60
2019-01-23T17:04:26.309Z,43.13
2019-01-23T17:06:55.923Z,43.37
2019-01-23T17:09:25.576Z,48.17
2019-01-23T17:11:55.096Z,42.20
2019-01-23T17:14:24.792Z,42.30
2019-01-23T17:16:54.619Z,43.13
2019-01-23T17:19:24.403Z,47.60
2019-01-23T17:21:54.197Z,89.43
2019-01-23T17:24:24.041Z,91.47
2019-01-23T17:26:55.662Z,74.40
2019-01-23T17:29:30.687Z,77.80
2019-01-23T17:31:57.852Z,82.57
2019-01-23T17:34:28.181Z,88.83
2019-01-23T17:36:59.013Z,104.90
2019-01-23T17:39:28.695Z,78.23
2019-01-23T17:41:58.527Z,76.57
2019-01-23T17:44:28.642Z,70.07
2019-01-23T17:46:58.575Z,69.47
2019-01-23T17:49:29.997Z,64.97
2019-01-23T17:51:59.879Z,70.67
2019-01-23T17:54:29.751Z,69.60
2019-01-23T17:56:59.587Z,72.13
2019-01-23T17:59:30.263Z,62.60
2019-01-23T18:02:00.164Z,78.20
2019-01-23T18:04:29.541Z,99.80
2019-01-23T18:06:59.169Z,91.30
2019-01-23T18:09:29.107Z,90.60
2019-01-23T18:11:58.590Z,75.67
2019-01-23T18:14:28.248Z,83.23
2019-01-23T18:16:57.939Z,79.33
2019-01-23T18:19:27.752Z,114.27
2019-01-23T18:21:59.014Z,85.73
2019-01-23T18:24:28.420Z,85.23
2019-01-23T18:26:58.503Z,89.33
2019-01-23T18:29:28.490Z,86.47
2019-01-23T18:32:01.592Z,112.80
2019-01-23T18:35:05.760Z,100.80
2019-01-23T18:38:14.052Z,107.20
2019-01-23T18:41:24.821Z,94.50
2019-01-23T18:44:37.432Z,142.00
2019-01-23T18:47:57.012Z,128.47
2019-01-23T18:51:07.058Z,109.87
2019-01-23T18:53:36.947Z,130.07
2019-01-23T18:56:06.852Z,113.23
2019-01-23T18:58:36.336Z,86.53
2019-01-23T19:01:06.260Z,89.93
2019-01-23T19:03:35.726Z,87.07
2019-01-23T19:06:05.390Z,95.50
2019-01-23T19:08:35.110Z,81.47
2019-01-23T19:11:05.097Z,73.63
2019-01-23T19:13:35.068Z,83.77
2019-01-23T19:16:07.030Z,68.40
2019-01-23T19:18:36.886Z,74.33
2019-01-23T19:21:07.501Z,81.60
2019-01-23T19:23:36.956Z,83.10
2019-01-23T19:26:06.557Z,95.07
2019-01-23T19:28:36.307Z,133.97
2019-01-23T19:31:06.021Z,103.47
2019-01-23T19:33:36.712Z,116.93
2019-01-23T19:36:06.581Z,119.43
2019-01-23T19:38:36.171Z,102.57
2019-01-23T19:41:06.048Z,113.63
2019-01-23T19:43:37.002Z,110.33
2019-01-23T19:46:06.744Z,99.03
2019-01-23T19:48:36.486Z,115.90
2019-01-23T19:51:06.669Z,148.13
2019-01-23T19:53:36.349Z,128.17
2019-01-23T19:56:06.178Z,114.23
2019-01-23T19:58:35.791Z,112.27
2019-01-23T20:01:05.990Z,120.50
2019-01-23T20:03:37.022Z,156.97
2019-01-23T20:06:06.708Z,123.53
2019-01-23T20:08:36.203Z,111.73
2019-01-23T20:11:06.105Z,112.30
2019-01-23T20:13:35.526Z,108.13
2019-01-23T20:16:05.265Z,129.20
2019-01-23T20:18:35.023Z,113.03
2019-01-23T20:21:04.626Z,99.73
2019-01-23T20:23:34.030Z,110.10
2019-01-23T20:26:03.816Z,102.33
2019-01-23T20:28:33.712Z,101.87
2019-01-23T20:31:03.213Z,99.60
2019-01-23T20:33:33.139Z,107.33
2019-01-23T20:36:02.944Z,120.70
2019-01-23T20:38:32.438Z,123.37
2019-01-23T20:41:02.045Z,123.63
2019-01-23T20:43:31.455Z,127.07
2019-01-23T20:46:00.934Z,104.33
2019-01-23T20:48:30.344Z,113.77
2019-01-23T20:50:59.771Z,109.23
2019-01-23T20:53:29.251Z,96.97
2019-01-23T20:55:58.755Z,99.73
2019-01-23T20:58:28.157Z,111.93
2019-01-23T21:00:57.598Z,152.63
2019-01-23T21:03:27.108Z,185.27
2019-01-23T21:05:56.605Z,143.53
2019-01-23T21:08:26.217Z,130.30
2019-01-23T21:10:56.040Z,111.27
2019-01-23T21:13:25.726Z,116.23
2019-01-23T21:15:55.674Z,111.80
2019-01-23T21:18:25.583Z,106.13
2019-01-23T21:20:56.308Z,123.73
2019-01-23T21:23:26.017Z,117.67
2019-01-23T21:25:55.930Z,115.40
2019-01-23T21:28:25.428Z,113.40
2019-01-23T21:30:55.069Z,114.43
2019-01-23T21:33:24.637Z,129.17
2019-01-23T21:35:54.433Z,138.40
2019-01-23T21:38:24.171Z,154.97
2019-01-23T21:40:53.889Z,115.40
2019-01-23T21:43:23.803Z,122.47
2019-01-23T21:45:53.180Z,91.67
2019-01-23T21:48:22.686Z,97.67
2019-01-23T21:50:52.152Z,95.43
2019-01-23T21:53:21.687Z,101.63
2019-01-23T21:55:51.404Z,97.93
2019-01-23T21:58:21.175Z,92.37
2019-01-23T22:00:56.568Z,93.37
2019-01-23T22:03:26.336Z,94.30
2019-01-23T22:05:56.213Z,100.87
2019-01-23T22:08:25.909Z,103.27
2019-01-23T22:10:55.607Z,99.07
2019-01-23T22:13:25.089Z,98.70
2019-01-23T22:15:54.578Z,128.70
2019-01-23T22:18:24.755Z,104.10
2019-01-23T22:20:54.439Z,106.83
2019-01-23T22:23:24.322Z,100.30
2019-01-23T22:25:53.995Z,85.83
2019-01-23T22:28:23.660Z,88.83
2019-01-23T22:30:53.063Z,106.33
2019-01-23T22:33:22.890Z,92.60
2019-01-23T22:35:52.597Z,113.97
2019-01-23T22:38:22.207Z,93.73
2019-01-23T22:40:51.915Z,99.53
2019-01-23T22:43:21.882Z,92.63
2019-01-23T22:45:51.360Z,93.57
2019-01-23T22:48:20.816Z,90.60
2019-01-23T22:50:50.614Z,73.40
2019-01-23T22:53:20.370Z,73.47
2019-01-23T22:55:50.157Z,72.50
2019-01-23T22:58:19.969Z,73.37
2019-01-23T23:01:09.643Z,73.70
2019-01-23T23:03:39.221Z,72.73
2019-01-23T23:06:08.891Z,71.10
2019-01-23T23:08:38.446Z,79.57
2019-01-23T23:11:08.273Z,72.27
2019-01-23T23:13:38.162Z,78.10
2019-01-23T23:16:08.111Z,85.30
2019-01-23T23:18:37.501Z,75.87
2019-01-23T23:21:07.000Z,72.73
2019-01-23T23:23:36.629Z,67.70
2019-01-23T23:26:06.215Z,66.77
2019-01-23T23:28:35.719Z,74.20
2019-01-23T23:31:05.536Z,82.03
2019-01-23T23:33:34.926Z,84.43
2019-01-23T23:36:05.023Z,86.43
2019-01-23T23:38:35.099Z,82.57
2019-01-23T23:41:04.582Z,75.00
2019-01-23T23:43:34.169Z,89.20
2019-01-23T23:46:04.046Z,79.73
2019-01-23T23:48:33.888Z,73.03
2019-01-23T23:51:03.726Z,63.33
2019-01-23T23:53:33.318Z,68.13
2019-01-23T23:56:02.751Z,74.77
2019-01-23T23:58:32.226Z,78.17
